createdAt,value
2022-10-05T00:01:43.069Z,95552.16
2022-10-05T00:04:15.886Z,95548.63
2022-10-05T00:06:45.083Z,95538.16
2022-10-05T00:09:17.119Z,95541.25
2022-10-05T00:11:45.227Z,95535.63
2022-10-05T00:14:25.235Z,95536.84
2022-10-05T00:16:52.881Z,95534.34
2022-10-05T00:19:23.225Z,95538.34
2022-10-05T00:21:50.844Z,95538.97
2022-10-05T00:24:20.624Z,95538.78
2022-10-05T00:26:52.653Z,95537.31
2022-10-05T00:29:24.274Z,95523.34
2022-10-05T00:31:53.087Z,95528.56
2022-10-05T00:34:22.149Z,95519.44
2022-10-05T00:36:49.956Z,95520.47
2022-10-05T00:39:19.114Z,95511.53
2022-10-05T00:42:12.332Z,95514.69
2022-10-05T00:44:42.994Z,95507.16
2022-10-05T00:47:32.219Z,95499.88
2022-10-05T00:50:32.413Z,95498.38
2022-10-05T00:53:07.278Z,95500.06
2022-10-05T00:55:41.419Z,95499.63
2022-10-05T00:58:15.920Z,95501.94
2022-10-05T01:00:51.173Z,95501.72
2022-10-05T01:03:21.774Z,95493.59
2022-10-05T01:06:00.740Z,95490.47
2022-10-05T01:08:35.448Z,95498.81
2022-10-05T01:11:08.754Z,95490.06
2022-10-05T01:13:42.869Z,95489.28
2022-10-05T01:16:14.792Z,95492.63
2022-10-05T01:18:47.601Z,95486.38
2022-10-05T01:21:20.253Z,95487.63
2022-10-05T01:24:13.400Z,95489.31
2022-10-05T01:27:17.834Z,95483.91
2022-10-05T01:29:51.051Z,95485.53
2022-10-05T01:32:24.763Z,95485.75
2022-10-05T01:34:57.608Z,95470.94
2022-10-05T01:37:28.043Z,95470.94
2022-10-05T01:40:02.008Z,95472.19
2022-10-05T01:42:35.015Z,95465.78
2022-10-05T01:45:10.308Z,95472.66
2022-10-05T01:47:44.519Z,95471.44
2022-10-05T01:50:22.332Z,95473.13
2022-10-05T01:52:54.941Z,95476.00
2022-10-05T01:55:29.119Z,95476.88
2022-10-05T01:58:04.744Z,95479.78
2022-10-05T02:00:36.944Z,95476.69
2022-10-05T02:03:05.998Z,95475.66
2022-10-05T02:05:38.990Z,95470.44
2022-10-05T02:08:09.421Z,95463.13
2022-10-05T02:10:39.460Z,95464.38
2022-10-05T02:13:11.489Z,95454.19
2022-10-05T02:15:44.231Z,95454.41
2022-10-05T02:18:14.589Z,95450.41
2022-10-05T02:20:43.658Z,95446.06
2022-10-05T02:23:15.330Z,95447.69
2022-10-05T02:25:46.610Z,95444.16
2022-10-05T02:28:16.814Z,95447.91
2022-10-05T02:30:49.946Z,95441.66
2022-10-05T02:33:21.693Z,95445.19
2022-10-05T02:35:49.365Z,95444.38
2022-10-05T02:38:22.551Z,95443.78
2022-10-05T02:40:56.490Z,95442.94
2022-10-05T02:43:29.418Z,95446.13
2022-10-05T02:46:04.791Z,95431.31
2022-10-05T02:48:44.997Z,95423.63
2022-10-05T02:51:18.208Z,95428.22
2022-10-05T02:53:56.896Z,95431.97
2022-10-05T02:56:28.188Z,95426.53
2022-10-05T02:59:03.112Z,95427.00
2022-10-05T03:01:35.599Z,95427.22
2022-10-05T03:04:12.468Z,95435.13
2022-10-05T03:06:49.012Z,95439.47
2022-10-05T03:09:18.787Z,95439.47
2022-10-05T03:11:52.710Z,95443.25
2022-10-05T03:14:24.296Z,95448.66
2022-10-05T03:17:01.603Z,95444.50
2022-10-05T03:19:51.929Z,95443.25
2022-10-05T03:22:30.233Z,95444.50
2022-10-05T03:25:17.962Z,95447.06
2022-10-05T03:27:49.731Z,95445.78
2022-10-05T03:30:19.574Z,95451.22
2022-10-05T03:32:56.853Z,95451.22
2022-10-05T03:35:29.616Z,95451.47
2022-10-05T03:38:05.389Z,95453.53
2022-10-05T03:40:37.261Z,95449.59
2022-10-05T03:43:19.730Z,95461.66
2022-10-05T03:45:51.104Z,95445.66
2022-10-05T03:48:24.485Z,95448.59
2022-10-05T03:51:03.539Z,95446.94
2022-10-05T03:53:33.316Z,95442.75
2022-10-05T03:56:04.847Z,95443.81
2022-10-05T03:58:36.838Z,95438.41
2022-10-05T04:01:11.375Z,95443.44
2022-10-05T04:03:43.218Z,95446.75
2022-10-05T04:06:14.367Z,95449.47
2022-10-05T04:08:48.036Z,95449.28
2022-10-05T04:11:19.247Z,95434.69
2022-10-05T04:13:49.983Z,95452.59
2022-10-05T04:16:22.419Z,95438.03
2022-10-05T04:18:55.497Z,95434.28
2022-10-05T04:21:26.345Z,95442.38
2022-10-05T04:23:58.806Z,95432.63
2022-10-05T04:26:32.093Z,95427.84
2022-10-05T04:29:05.369Z,95427.84
2022-10-05T04:32:29.012Z,95437.19
2022-10-05T04:35:21.251Z,95438.06
2022-10-05T04:37:55.245Z,95435.97
2022-10-05T04:40:33.745Z,95433.88
2022-10-05T04:43:08.963Z,95427.22
2022-10-05T04:45:48.597Z,95431.34
2022-10-05T04:48:29.062Z,95428.66
2022-10-05T04:51:09.629Z,95437.59
2022-10-05T04:53:41.625Z,95433.66
2022-10-05T04:56:11.439Z,95443.00
2022-10-05T04:58:48.313Z,95450.09
2022-10-05T05:01:31.381Z,95455.09
2022-10-05T05:04:09.796Z,95451.31
2022-10-05T05:06:41.425Z,95459.69
2022-10-05T05:09:18.748Z,95461.53
2022-10-05T05:11:57.318Z,95455.09
2022-10-05T05:14:37.094Z,95461.75
2022-10-05T05:17:14.850Z,95453.63
2022-10-05T05:19:52.928Z,95457.19
2022-10-05T05:22:29.046Z,95468.00
2022-10-05T05:25:13.513Z,95464.66
2022-10-05T05:27:43.475Z,95462.16
2022-10-05T05:30:20.169Z,95457.59
2022-10-05T05:32:58.809Z,95455.72
2022-10-05T05:35:37.144Z,95455.72
2022-10-05T05:38:15.203Z,95459.03
2022-10-05T05:40:47.038Z,95458.41
2022-10-05T05:43:24.686Z,95459.03
2022-10-05T05:45:58.743Z,95461.75
2022-10-05T05:48:32.020Z,95463.41
2022-10-05T05:51:03.979Z,95456.72
2022-10-05T05:53:35.814Z,95453.59
2022-10-05T05:56:09.278Z,95451.94
2022-10-05T05:58:41.729Z,95447.56
2022-10-05T06:01:31.732Z,95448.81
2022-10-05T06:04:03.678Z,95449.22
2022-10-05T06:06:33.488Z,95442.09
2022-10-05T06:09:05.515Z,95445.00
2022-10-05T06:11:38.105Z,95438.53
2022-10-05T06:14:10.198Z,95450.16
2022-10-05T06:16:40.404Z,95440.13
2022-10-05T06:19:12.069Z,95449.88
2022-10-05T06:21:44.091Z,95451.09
2022-10-05T06:24:16.792Z,95451.75
2022-10-05T06:27:07.239Z,95454.44
2022-10-05T06:29:45.579Z,95456.03
2022-10-05T06:32:20.409Z,95461.00
2022-10-05T06:34:57.620Z,95460.09
2022-10-05T06:37:39.549Z,95457.31
2022-10-05T06:40:14.881Z,95459.94
2022-10-05T06:42:50.702Z,95455.22
2022-10-05T06:45:23.349Z,95453.06
2022-10-05T06:47:53.267Z,95456.56
2022-10-05T06:50:31.293Z,95460.59
2022-10-05T06:53:18.082Z,95459.88
2022-10-05T06:55:52.831Z,95462.69
2022-10-05T06:58:37.591Z,95470.47
2022-10-05T07:01:10.645Z,95463.22
2022-10-05T07:03:43.355Z,95470.78
2022-10-05T07:06:15.568Z,95468.34
2022-10-05T07:08:57.907Z,95472.22
2022-10-05T07:11:36.652Z,95472.28
2022-10-05T07:14:13.762Z,95491.47
2022-10-05T07:16:48.953Z,95486.69
2022-10-05T07:19:26.627Z,95492.78
2022-10-05T07:22:15.056Z,95489.88
2022-10-05T07:24:44.508Z,95504.50
2022-10-05T07:27:17.845Z,95500.56
2022-10-05T07:29:50.047Z,95510.38
2022-10-05T07:32:22.597Z,95508.78
2022-10-05T07:34:55.936Z,95511.28
2022-10-05T07:37:46.594Z,95510.47
2022-10-05T07:40:20.540Z,95515.69
2022-10-05T07:42:59.845Z,95526.22
2022-10-05T07:45:30.368Z,95523.41
2022-10-05T07:47:59.020Z,95525.28
2022-10-05T07:50:31.472Z,95522.28
2022-10-05T07:53:02.542Z,95522.38
2022-10-05T07:55:35.169Z,95531.63
2022-10-05T07:58:09.512Z,95533.88
2022-10-05T08:00:59.442Z,95524.94
2022-10-05T08:03:31.583Z,95526.88
2022-10-05T08:06:00.083Z,95537.81
2022-10-05T08:08:33.859Z,95530.06
2022-10-05T08:11:06.327Z,95531.47
2022-10-05T08:13:40.212Z,95530.34
2022-10-05T08:16:14.371Z,95536.91
2022-10-05T08:18:50.757Z,95538.25
2022-10-05T08:21:22.094Z,95543.28
2022-10-05T08:23:54.413Z,95546.28
2022-10-05T08:26:28.053Z,95547.13
2022-10-05T08:29:06.714Z,95552.41
2022-10-05T08:31:38.429Z,95557.66
2022-10-05T08:34:20.105Z,95550.78
2022-10-05T08:36:55.741Z,95555.94
2022-10-05T08:39:25.887Z,95558.91
2022-10-05T08:42:31.997Z,95554.25
2022-10-05T08:45:23.886Z,95554.41
2022-10-05T08:48:07.826Z,95554.84
2022-10-05T08:51:06.622Z,95548.66
2022-10-05T08:53:52.677Z,95557.56
2022-10-05T08:56:39.235Z,95558.19
2022-10-05T08:59:34.277Z,95555.88
2022-10-05T09:02:16.910Z,95557.66
2022-10-05T09:04:58.092Z,95549.81
2022-10-05T09:07:42.857Z,95556.16
2022-10-05T09:10:43.653Z,95555.91
2022-10-05T09:13:34.730Z,95555.38
2022-10-05T09:16:31.484Z,95553.19
2022-10-05T09:19:22.814Z,95561.47
2022-10-05T09:21:58.307Z,95558.53
2022-10-05T09:24:29.852Z,95566.28
2022-10-05T09:27:04.547Z,95554.00
2022-10-05T09:30:11.487Z,95569.97
2022-10-05T09:33:07.732Z,95550.16
2022-10-05T09:36:06.048Z,95558.38
2022-10-05T09:38:40.443Z,95558.66
2022-10-05T09:41:31.473Z,95553.63
2022-10-05T09:44:16.777Z,95559.41
2022-10-05T09:46:59.780Z,95555.47
2022-10-05T09:49:54.628Z,95554.28
2022-10-05T09:52:42.492Z,95556.66
2022-10-05T09:55:36.267Z,95550.16
2022-10-05T09:58:48.510Z,95554.75
2022-10-05T10:01:52.276Z,95551.56
2022-10-05T10:04:30.407Z,95549.25
2022-10-05T10:07:36.255Z,95538.53
2022-10-05T10:10:31.826Z,95542.41
2022-10-05T10:13:22.070Z,95548.44
2022-10-05T10:16:10.002Z,95547.22
2022-10-05T10:18:48.338Z,95544.09
2022-10-05T10:21:33.101Z,95544.66
2022-10-05T10:24:17.177Z,95547.34
2022-10-05T10:27:09.561Z,95546.31
2022-10-05T10:29:56.319Z,95542.22
2022-10-05T10:32:58.136Z,95545.16
2022-10-05T10:35:36.034Z,95536.81
2022-10-05T10:38:28.739Z,95539.19
2022-10-05T10:41:18.173Z,95541.41
2022-10-05T10:44:12.292Z,95535.69
2022-10-05T10:46:46.368Z,95537.56
2022-10-05T10:49:25.317Z,95540.34
2022-10-05T10:52:23.309Z,95536.72
2022-10-05T10:55:04.846Z,95528.03
2022-10-05T10:57:43.728Z,95525.81
2022-10-05T11:00:32.521Z,95527.66
2022-10-05T11:03:43.442Z,95524.53
2022-10-05T11:06:27.284Z,95525.66
2022-10-05T11:09:27.573Z,95527.13
2022-10-05T11:12:25.391Z,95513.28
2022-10-05T11:15:05.017Z,95515.88
2022-10-05T11:17:54.217Z,95511.34
2022-10-05T11:20:57.821Z,95508.66
2022-10-05T11:23:39.852Z,95501.44
2022-10-05T11:26:20.437Z,95496.91
2022-10-05T11:29:32.165Z,95501.44
2022-10-05T11:32:35.075Z,95493.22
2022-10-05T11:35:25.940Z,95486.44
2022-10-05T11:38:11.977Z,95489.19
2022-10-05T11:41:08.241Z,95486.13
2022-10-05T11:43:55.742Z,95479.00
2022-10-05T11:46:27.246Z,95480.25
2022-10-05T11:49:18.850Z,95473.63
2022-10-05T11:51:53.907Z,95465.31
2022-10-05T11:55:05.874Z,95467.78
2022-10-05T11:57:33.604Z,95462.91
2022-10-05T12:00:07.846Z,95456.59
2022-10-05T12:02:59.142Z,95460.91
2022-10-05T12:05:32.394Z,95455.91
2022-10-05T12:08:13.932Z,95452.56
2022-10-05T12:10:46.803Z,95449.31
2022-10-05T12:13:23.783Z,95450.38
2022-10-05T12:15:54.828Z,95447.59
2022-10-05T12:18:26.257Z,95452.88
2022-10-05T12:20:57.991Z,95450.66
2022-10-05T12:23:30.758Z,95442.41
2022-10-05T12:26:01.946Z,95446.31
2022-10-05T12:28:36.285Z,95451.78
2022-10-05T12:31:24.886Z,95440.28
2022-10-05T12:33:58.449Z,95433.63
2022-10-05T12:36:46.186Z,95439.16
2022-10-05T12:39:25.409Z,95438.88
2022-10-05T12:42:00.849Z,95439.38
2022-10-05T12:44:43.025Z,95428.09
2022-10-05T12:47:16.971Z,95435.81
2022-10-05T12:49:54.820Z,95430.41
2022-10-05T12:52:38.145Z,95432.88
2022-10-05T12:55:12.558Z,95426.34
2022-10-05T12:57:45.253Z,95423.56
2022-10-05T13:00:17.730Z,95426.34
2022-10-05T13:02:50.889Z,95418.16
2022-10-05T13:05:24.436Z,95429.28
2022-10-05T13:08:12.824Z,95423.31
2022-10-05T13:10:45.171Z,95415.50
2022-10-05T13:13:35.702Z,95416.34
2022-10-05T13:16:10.476Z,95418.16
2022-10-05T13:18:48.933Z,95419.59
2022-10-05T13:21:20.789Z,95419.91
2022-10-05T13:23:58.533Z,95417.31
2022-10-05T13:26:32.689Z,95420.59
2022-10-05T13:29:04.356Z,95416.97
2022-10-05T13:31:35.024Z,95410.75
2022-10-05T13:34:09.208Z,95413.06
2022-10-05T13:36:45.774Z,95412.16
2022-10-05T13:39:27.853Z,95414.28
2022-10-05T13:41:58.072Z,95411.28
2022-10-05T13:44:32.137Z,95412.88
2022-10-05T13:47:02.997Z,95420.06
2022-10-05T13:49:33.918Z,95414.97
2022-10-05T13:52:10.260Z,95416.31
2022-10-05T13:54:44.100Z,95420.19
2022-10-05T13:57:25.382Z,95416.56
2022-10-05T13:59:55.470Z,95417.81
2022-10-05T14:02:24.589Z,95418.72
2022-10-05T14:04:58.976Z,95424.16
2022-10-05T14:07:34.047Z,95416.13
2022-10-05T14:10:04.519Z,95420.25
2022-10-05T14:12:40.488Z,95415.69
2022-10-05T14:15:21.288Z,95402.81
2022-10-05T14:17:51.369Z,95414.91
2022-10-05T14:20:23.545Z,95413.25
2022-10-05T14:22:57.598Z,95404.22
2022-10-05T14:25:25.557Z,95404.22
2022-10-05T14:27:59.661Z,95402.38
2022-10-05T14:30:28.825Z,95411.03
2022-10-05T14:32:59.441Z,95406.72
2022-10-05T14:35:31.225Z,95410.25
2022-10-05T14:38:00.766Z,95401.84
2022-10-05T14:40:31.877Z,95408.84
2022-10-05T14:43:02.128Z,95418.31
2022-10-05T14:45:31.177Z,95411.81
2022-10-05T14:48:38.396Z,95410.50
2022-10-05T14:51:11.220Z,95410.09
2022-10-05T14:53:40.946Z,95410.09
2022-10-05T14:56:36.749Z,95413.91
2022-10-05T14:59:29.691Z,95412.84
2022-10-05T15:02:00.703Z,95410.75
2022-10-05T15:04:38.658Z,95410.53
2022-10-05T15:07:16.823Z,95401.56
2022-10-05T15:09:58.475Z,95400.56
2022-10-05T15:12:30.720Z,95408.22
2022-10-05T15:15:04.662Z,95401.50
2022-10-05T15:17:36.358Z,95398.59
2022-10-05T15:20:10.856Z,95397.19
2022-10-05T15:22:48.131Z,95394.91
2022-10-05T15:25:18.076Z,95399.53
2022-10-05T15:28:04.073Z,95389.91
2022-10-05T15:30:35.219Z,95392.78
2022-10-05T15:33:09.970Z,95385.69
2022-10-05T15:36:00.468Z,95397.72
2022-10-05T15:38:30.341Z,95376.69
2022-10-05T15:41:08.978Z,95386.44
2022-10-05T15:43:46.548Z,95383.44
2022-10-05T15:46:19.006Z,95382.41
2022-10-05T15:48:55.650Z,95389.69
2022-10-05T15:51:31.930Z,95388.97
2022-10-05T15:54:21.744Z,95381.50
2022-10-05T15:56:53.384Z,95387.25
2022-10-05T15:59:27.943Z,95377.78
2022-10-05T16:02:00.849Z,95390.44
2022-10-05T16:04:40.261Z,95391.75
2022-10-05T16:07:29.519Z,95384.16
2022-10-05T16:10:00.456Z,95380.47
2022-10-05T16:12:39.243Z,95392.72
2022-10-05T16:15:18.633Z,95382.50
2022-10-05T16:17:57.733Z,95394.97
2022-10-05T16:20:32.818Z,95390.34
2022-10-05T16:23:06.949Z,95390.78
2022-10-05T16:25:44.001Z,95387.94
2022-10-05T16:28:19.133Z,95389.47
2022-10-05T16:30:55.220Z,95397.06
2022-10-05T16:33:32.045Z,95398.28
2022-10-05T16:36:05.166Z,95390.16
2022-10-05T16:38:38.367Z,95386.94
2022-10-05T16:41:12.688Z,95399.78
2022-10-05T16:43:45.813Z,95399.13
2022-10-05T16:46:22.188Z,95408.94
2022-10-05T16:48:58.988Z,95407.19
2022-10-05T16:51:29.849Z,95405.03
2022-10-05T16:54:03.306Z,95407.59
2022-10-05T16:56:35.309Z,95410.44
2022-10-05T16:59:15.853Z,95415.78
2022-10-05T17:01:50.104Z,95414.75
2022-10-05T17:04:28.791Z,95418.97
2022-10-05T17:07:09.989Z,95412.38
2022-10-05T17:09:53.352Z,95425.66
2022-10-05T17:12:38.488Z,95426.19
2022-10-05T17:15:20.796Z,95432.28
2022-10-05T17:17:58.745Z,95430.66
2022-10-05T17:20:49.224Z,95436.75
2022-10-05T17:23:30.225Z,95440.06
2022-10-05T17:26:02.755Z,95435.69
2022-10-05T17:28:38.722Z,95448.88
2022-10-05T17:31:25.627Z,95446.66
2022-10-05T17:34:26.447Z,95449.41
2022-10-05T17:36:59.709Z,95447.19
2022-10-05T17:39:51.037Z,95449.94
2022-10-05T17:42:47.392Z,95452.41
2022-10-05T17:45:49.661Z,95462.59
2022-10-05T17:48:45.215Z,95457.63
2022-10-05T17:51:35.946Z,95458.97
2022-10-05T17:54:38.209Z,95452.66
2022-10-05T17:57:29.953Z,95458.13
2022-10-05T17:59:59.494Z,95453.72
2022-10-05T18:02:42.785Z,95453.63
2022-10-05T18:05:23.192Z,95468.31
2022-10-05T18:08:31.743Z,95475.84
2022-10-05T18:11:36.640Z,95482.84
2022-10-05T18:14:19.378Z,95485.03
2022-10-05T18:17:01.576Z,95489.44
2022-10-05T18:19:32.289Z,95484.50
2022-10-05T18:22:03.257Z,95492.19
2022-10-05T18:25:03.857Z,95494.88
2022-10-05T18:27:53.251Z,95496.88
2022-10-05T18:30:22.933Z,95500.66
2022-10-05T18:33:27.202Z,95506.13
2022-10-05T18:36:02.168Z,95509.94
2022-10-05T18:38:45.690Z,95521.41
2022-10-05T18:41:20.066Z,95520.53
2022-10-05T18:43:56.752Z,95535.03
2022-10-05T18:46:31.662Z,95528.91
2022-10-05T18:49:07.785Z,95529.75
2022-10-05T18:51:42.457Z,95534.00
2022-10-05T18:54:19.109Z,95531.66
2022-10-05T18:56:49.933Z,95540.91
2022-10-05T18:59:29.100Z,95535.69
2022-10-05T19:02:12.018Z,95543.84
2022-10-05T19:04:49.007Z,95546.59
2022-10-05T19:07:23.639Z,95538.09
2022-10-05T19:10:02.257Z,95543.50
2022-10-05T19:12:41.399Z,95543.19
2022-10-05T19:15:17.284Z,95545.31
2022-10-05T19:17:55.161Z,95550.22
2022-10-05T19:20:28.408Z,95554.84
2022-10-05T19:23:15.052Z,95558.38
2022-10-05T19:25:47.483Z,95560.19
2022-10-05T19:28:21.331Z,95562.63
2022-10-05T19:31:10.589Z,95568.97
2022-10-05T19:33:49.824Z,95573.31
2022-10-05T19:36:31.867Z,95573.81
2022-10-05T19:39:04.555Z,95569.50
2022-10-05T19:41:45.804Z,95579.94
2022-10-05T19:44:21.201Z,95586.19
2022-10-05T19:47:00.828Z,95583.94
2022-10-05T19:49:43.582Z,95587.44
2022-10-05T19:52:13.981Z,95589.34
2022-10-05T19:54:42.619Z,95591.59
2022-10-05T19:57:17.976Z,95588.59
2022-10-05T19:59:47.059Z,95596.53
2022-10-05T20:02:17.846Z,95597.63
2022-10-05T20:04:47.526Z,95598.63
2022-10-05T20:07:17.337Z,95601.88
2022-10-05T20:09:57.958Z,95604.53
2022-10-05T20:12:50.715Z,95604.47
2022-10-05T20:15:37.706Z,95610.19
2022-10-05T20:18:59.204Z,95609.88
2022-10-05T20:21:44.226Z,95620.47
2022-10-05T20:24:13.073Z,95619.66
2022-10-05T20:26:59.957Z,95616.41
2022-10-05T20:29:27.894Z,95626.94
2022-10-05T20:31:55.915Z,95630.03
2022-10-05T20:34:25.264Z,95631.97
2022-10-05T20:36:53.085Z,95629.84
2022-10-05T20:39:21.416Z,95640.88
2022-10-05T20:41:49.106Z,95642.00
2022-10-05T20:44:16.774Z,95641.84
2022-10-05T20:46:46.334Z,95644.31
2022-10-05T20:49:14.287Z,95649.16
2022-10-05T20:51:43.400Z,95653.31
2022-10-05T20:54:11.015Z,95653.16
2022-10-05T20:56:38.689Z,95653.97
2022-10-05T20:59:06.398Z,95659.53
2022-10-05T21:01:34.258Z,95668.38
2022-10-05T21:04:06.808Z,95664.72
2022-10-05T21:06:34.455Z,95667.84
2022-10-05T21:09:03.453Z,95668.00
2022-10-05T21:11:31.090Z,95671.47
2022-10-05T21:14:03.333Z,95671.28
2022-10-05T21:16:34.106Z,95681.41
2022-10-05T21:19:01.812Z,95683.75
2022-10-05T21:21:29.433Z,95684.41
2022-10-05T21:23:58.283Z,95684.31
2022-10-05T21:26:28.941Z,95681.97
2022-10-05T21:28:57.066Z,95689.78
2022-10-05T21:31:24.952Z,95687.34
2022-10-05T21:33:52.637Z,95686.63
2022-10-05T21:36:23.848Z,95685.56
2022-10-05T21:38:52.657Z,95693.66
2022-10-05T21:41:20.440Z,95688.66
2022-10-05T21:43:49.530Z,95701.75
2022-10-05T21:46:20.171Z,95707.53
2022-10-05T21:48:48.961Z,95712.19
2022-10-05T21:51:18.907Z,95709.59
2022-10-05T21:53:48.940Z,95711.94
2022-10-05T21:56:18.399Z,95710.28
2022-10-05T21:58:49.060Z,95713.50
2022-10-05T22:01:22.283Z,95717.91
2022-10-05T22:03:50.557Z,95711.47
2022-10-05T22:06:18.190Z,95723.59
2022-10-05T22:08:46.017Z,95713.13
2022-10-05T22:11:15.538Z,95717.50
2022-10-05T22:13:45.147Z,95722.59
2022-10-05T22:16:15.124Z,95720.94
2022-10-05T22:18:43.109Z,95725.56
2022-10-05T22:21:12.324Z,95726.72
2022-10-05T22:23:40.214Z,95720.53
2022-10-05T22:26:09.745Z,95719.81
2022-10-05T22:28:38.846Z,95724.28
2022-10-05T22:31:07.848Z,95722.63
2022-10-05T22:33:37.172Z,95734.19
2022-10-05T22:36:05.803Z,95731.84
2022-10-05T22:38:33.470Z,95734.94
2022-10-05T22:41:01.209Z,95743.84
2022-10-05T22:43:29.138Z,95743.50
2022-10-05T22:45:57.157Z,95751.13
2022-10-05T22:48:25.406Z,95753.16
2022-10-05T22:50:54.759Z,95751.38
2022-10-05T22:53:22.409Z,95751.25
2022-10-05T22:55:50.118Z,95756.38
2022-10-05T22:58:17.938Z,95756.50
2022-10-05T23:00:58.049Z,95753.38
2022-10-05T23:03:26.492Z,95756.25
2022-10-05T23:05:58.981Z,95756.75
2022-10-05T23:08:27.168Z,95758.63
2022-10-05T23:10:55.165Z,95767.53
2022-10-05T23:13:23.441Z,95757.44
2022-10-05T23:15:51.150Z,95766.94
2022-10-05T23:18:18.793Z,95767.91
2022-10-05T23:20:46.531Z,95771.56
2022-10-05T23:23:15.611Z,95773.47
2022-10-05T23:25:43.297Z,95782.72
2022-10-05T23:28:11.071Z,95778.31
2022-10-05T23:30:38.894Z,95789.44
2022-10-05T23:33:06.642Z,95793.25
2022-10-05T23:35:34.381Z,95787.19
2022-10-05T23:38:02.095Z,95797.97
2022-10-05T23:40:31.200Z,95789.63
2022-10-05T23:42:58.898Z,95795.59
2022-10-05T23:45:26.618Z,95795.91
2022-10-05T23:47:54.263Z,95797.75
2022-10-05T23:50:24.862Z,95799.31
2022-10-05T23:52:52.491Z,95806.75
2022-10-05T23:55:20.163Z,95809.72
2022-10-05T23:57:49.132Z,95803.88
